Time;durP1;ratioP1;P1;durP2;ratioP2;P2;SDS_P1;SDS_P2;PMS_P1;PMS_P2;Temp;Humidity;BMP_temperature;BMP_pressure;BME280_temperature;BME280_humidity;BME280_pressure;Samples;Min_cycle;Max_cycle;Signal;HPM_P1;HPM_P2
2023/10/20 00:00:41;;;;;;;27.13;15.55;;;15.30;99.90;;;;;;6212865;23;20075;-81
2023/10/20 00:03:08;;;;;;;31.35;18.48;;;15.30;99.90;;;;;;6215103;23;20032;-81
2023/10/20 00:05:37;;;;;;;25.67;16.05;;;15.40;99.90;;;;;;6217392;23;20021;-79
2023/10/20 00:08:05;;;;;;;33.40;19.02;;;15.40;99.90;;;;;;6219133;23;20028;-82
2023/10/20 00:10:35;;;;;;;30.35;18.20;;;15.40;99.90;;;;;;6221534;23;20020;-80
2023/10/20 00:13:02;;;;;;;32.47;19.05;;;15.40;99.90;;;;;;6223150;22;20027;-78
2023/10/20 00:15:30;;;;;;;32.95;17.88;;;15.30;99.90;;;;;;6154540;23;20101;-77
2023/10/20 00:17:57;;;;;;;29.23;16.38;;;15.30;99.90;;;;;;6160334;23;20053;-76
2023/10/20 00:20:25;;;;;;;27.00;16.65;;;15.30;99.90;;;;;;6168767;23;20033;-77
2023/10/20 00:22:54;;;;;;;26.85;16.20;;;15.20;99.90;;;;;;6156986;23;20035;-78
2023/10/20 00:25:23;;;;;;;28.20;16.75;;;15.20;99.90;;;;;;6175510;23;20025;-76
2023/10/20 00:27:50;;;;;;;26.65;15.32;;;15.20;99.90;;;;;;6213443;23;20021;-75
2023/10/20 00:30:18;;;;;;;27.65;17.23;;;15.20;99.90;;;;;;6215235;23;20021;-77
2023/10/20 00:32:45;;;;;;;25.80;16.33;;;15.20;99.90;;;;;;6186109;23;20107;-74
2023/10/20 00:35:13;;;;;;;25.65;14.95;;;15.10;99.90;;;;;;6187244;23;20068;-76
2023/10/20 00:37:41;;;;;;;27.30;17.40;;;15.20;99.90;;;;;;6186293;23;20020;-75
2023/10/20 00:40:12;;;;;;;30.25;16.15;;;15.20;99.90;;;;;;6186020;23;20023;-78
2023/10/20 00:42:39;;;;;;;27.70;16.08;;;15.20;99.90;;;;;;6214169;23;20087;-77
2023/10/20 00:45:09;;;;;;;27.42;16.60;;;15.20;99.90;;;;;;6189027;23;20066;-77
2023/10/20 00:47:39;;;;;;;30.23;16.25;;;15.20;99.90;;;;;;6229793;23;20055;-76
2023/10/20 00:50:09;;;;;;;32.28;19.17;;;15.20;99.90;;;;;;6240307;23;20052;-76
2023/10/20 00:52:36;;;;;;;35.50;20.35;;;15.20;99.90;;;;;;6212253;23;20013;-77
2023/10/20 00:55:07;;;;;;;27.23;17.98;;;15.20;99.90;;;;;;6193030;23;20017;-76
2023/10/20 00:57:37;;;;;;;23.10;15.38;;;15.10;99.90;;;;;;6186073;23;20029;-78
2023/10/20 01:00:08;;;;;;;21.67;14.18;;;15.10;99.90;;;;;;6184968;23;20402;-78
2023/10/20 01:02:37;;;;;;;25.98;13.65;;;15.10;99.90;;;;;;6186140;23;20484;-76
2023/10/20 01:05:06;;;;;;;27.30;14.70;;;15.10;99.90;;;;;;6185537;23;20742;-77
2023/10/20 01:07:35;;;;;;;28.30;13.85;;;15.20;99.90;;;;;;6185845;23;20357;-76
2023/10/20 01:10:05;;;;;;;23.02;13.23;;;15.10;99.90;;;;;;6198136;23;20068;-76
2023/10/20 01:12:32;;;;;;;24.55;12.93;;;15.10;99.90;;;;;;6213819;23;20008;-76
2023/10/20 01:15:02;;;;;;;24.48;13.45;;;15.20;99.90;;;;;;6236988;22;20048;-75
2023/10/20 01:17:31;;;;;;;30.67;13.45;;;15.20;99.90;;;;;;6188159;23;20103;-79
2023/10/20 01:20:04;;;;;;;20.48;11.70;;;15.30;99.90;;;;;;6187496;23;20102;-78
2023/10/20 01:22:31;;;;;;;22.67;12.30;;;15.30;99.90;;;;;;6223935;23;20059;-77
2023/10/20 01:25:01;;;;;;;26.23;12.00;;;15.30;99.90;;;;;;6188360;23;20012;-79
2023/10/20 01:27:28;;;;;;;20.80;10.63;;;15.40;99.90;;;;;;6186177;23;20040;-77
2023/10/20 01:29:56;;;;;;;24.75;13.18;;;15.40;99.90;;;;;;6215813;23;20024;-78
2023/10/20 01:32:23;;;;;;;24.35;11.90;;;15.40;99.90;;;;;;6184633;23;20032;-77
2023/10/20 01:34:50;;;;;;;20.73;10.75;;;15.30;99.90;;;;;;6184620;23;20028;-77
2023/10/20 01:37:18;;;;;;;18.35;10.55;;;15.40;99.90;;;;;;6185355;23;20043;-78
2023/10/20 01:39:47;;;;;;;21.50;11.05;;;15.40;99.90;;;;;;6194836;23;20028;-76
2023/10/20 01:42:17;;;;;;;24.58;10.85;;;15.40;99.90;;;;;;6241458;23;20012;-76
2023/10/20 01:44:44;;;;;;;18.83;9.93;;;15.40;99.90;;;;;;6213114;22;20027;-76
2023/10/20 01:47:12;;;;;;;23.80;11.07;;;15.50;99.90;;;;;;6193516;23;20024;-76
2023/10/20 01:49:40;;;;;;;24.15;11.27;;;15.60;99.90;;;;;;6185867;23;20074;-78
2023/10/20 01:52:08;;;;;;;21.75;11.65;;;15.50;99.90;;;;;;6186401;23;20092;-77
2023/10/20 01:54:36;;;;;;;21.88;11.20;;;15.50;99.90;;;;;;6186321;23;20021;-79
2023/10/20 01:57:03;;;;;;;26.48;10.88;;;15.50;99.90;;;;;;6184685;23;20035;-78
2023/10/20 01:59:32;;;;;;;22.58;10.93;;;15.50;99.90;;;;;;6184605;23;20030;-76
2023/10/20 02:01:59;;;;;;;23.05;11.70;;;15.50;99.90;;;;;;6185764;23;20445;-78
2023/10/20 02:04:27;;;;;;;18.67;12.48;;;15.50;99.90;;;;;;6186095;23;20017;-77
2023/10/20 02:06:55;;;;;;;20.63;11.93;;;15.40;99.90;;;;;;6211662;23;20330;-75
2023/10/20 02:09:25;;;;;;;23.73;12.75;;;15.40;99.90;;;;;;6184254;23;20396;-78
2023/10/20 02:11:57;;;;;;;27.80;13.68;;;15.50;99.90;;;;;;6184389;23;20016;-77
2023/10/20 02:14:24;;;;;;;17.50;10.57;;;15.50;99.90;;;;;;6187500;23;20029;-77
2023/10/20 02:16:54;;;;;;;24.73;9.10;;;15.50;99.90;;;;;;6228170;23;20076;-78
2023/10/20 02:19:21;;;;;;;22.75;9.45;;;15.70;99.90;;;;;;6189017;23;20072;-76
2023/10/20 02:21:51;;;;;;;21.88;10.15;;;15.80;48.00;;;;;;6184365;23;20024;-76
2023/10/20 02:24:18;;;;;;;20.98;10.48;;;15.80;99.90;;;;;;6183925;23;20083;-75
2023/10/20 02:26:46;;;;;;;21.98;11.02;;;15.80;79.30;;;;;;6184836;23;20095;-78
2023/10/20 02:29:14;;;;;;;25.60;10.35;;;15.90;1.00;;;;;;6217968;23;20028;-76
2023/10/20 02:31:42;;;;;;;22.63;11.43;;;15.90;1.00;;;;;;6185446;23;20433;-75
2023/10/20 02:34:11;;;;;;;22.75;10.10;;;15.90;1.00;;;;;;6186527;23;20430;-77
2023/10/20 02:36:39;;;;;;;23.48;9.18;;;16.00;1.00;;;;;;6184635;23;20016;-78
2023/10/20 02:39:07;;;;;;;21.08;9.15;;;16.10;99.90;;;;;;6183739;23;20504;-79
2023/10/20 02:41:34;;;;;;;21.30;9.23;;;16.20;99.90;;;;;;6217206;23;20025;-76
2023/10/20 02:44:01;;;;;;;19.70;7.95;;;16.20;1.00;;;;;;6218843;23;20025;-75
2023/10/20 02:46:30;;;;;;;14.52;8.13;;;16.20;1.00;;;;;;6185559;23;20142;-73
2023/10/20 02:48:58;;;;;;;26.42;10.15;;;16.20;1.00;;;;;;6185440;23;20025;-77
2023/10/20 02:51:27;;;;;;;19.15;8.13;;;16.20;91.30;;;;;;6213535;23;20323;-77
2023/10/20 02:53:54;;;;;;;24.70;10.38;;;16.20;1.00;;;;;;6184829;23;20049;-79
2023/10/20 02:56:23;;;;;;;16.02;7.68;;;16.30;1.00;;;;;;6185423;23;20354;-77
2023/10/20 02:58:50;;;;;;;18.63;8.27;;;16.30;99.90;;;;;;6233539;23;20040;-76
2023/10/20 03:01:19;;;;;;;19.70;9.20;;;16.40;1.00;;;;;;6204074;23;20044;-75
2023/10/20 03:03:46;;;;;;;18.38;9.60;;;16.50;99.90;;;;;;6224755;23;20047;-76
2023/10/20 03:06:14;;;;;;;24.08;9.43;;;16.50;1.00;;;;;;6236880;22;20101;-76
2023/10/20 03:08:43;;;;;;;23.67;9.95;;;16.50;1.00;;;;;;6199698;23;20024;-76
2023/10/20 03:11:11;;;;;;;21.75;9.25;;;16.50;99.90;;;;;;6184767;23;20024;-75
2023/10/20 03:13:38;;;;;;;21.92;9.15;;;16.50;99.90;;;;;;6220197;23;20489;-75
2023/10/20 03:16:06;;;;;;;18.90;8.65;;;16.50;1.00;;;;;;6221827;23;20067;-75
2023/10/20 03:18:34;;;;;;;24.05;10.02;;;16.70;99.90;;;;;;6184100;23;20028;-78
2023/10/20 03:21:02;;;;;;;21.27;8.10;;;16.80;1.00;;;;;;6214396;23;20025;-79
2023/10/20 03:23:29;;;;;;;19.38;9.02;;;16.90;78.50;;;;;;6216761;23;20548;-79
2023/10/20 03:25:58;;;;;;;22.85;8.57;;;17.20;99.90;;;;;;6186287;23;20028;-75
2023/10/20 03:28:28;;;;;;;22.67;7.50;;;17.30;1.00;;;;;;6222757;23;20108;-78
2023/10/20 03:30:55;;;;;;;22.90;8.70;;;17.50;52.30;;;;;;6185805;23;20024;-77
2023/10/20 03:33:23;;;;;;;16.02;6.97;;;17.70;1.00;;;;;;6185702;23;20024;-80
2023/10/20 03:36:00;;;;;;;15.85;7.10;;;17.80;99.90;;;;;;6216723;23;20025;-80
2023/10/20 03:38:28;;;;;;;18.13;6.72;;;17.90;1.00;;;;;;6185788;23;20033;-75
2023/10/20 03:41:06;;;;;;;18.10;6.53;;;18.10;1.00;;;;;;6187359;23;20231;-74
2023/10/20 03:43:34;;;;;;;18.60;7.75;;;18.20;1.00;;;;;;6222858;23;20018;-74
2023/10/20 03:46:02;;;;;;;22.75;6.78;;;18.50;99.90;;;;;;6188702;23;20020;-75
2023/10/20 03:48:31;;;;;;;13.60;5.82;;;18.60;1.00;;;;;;6186324;23;20021;-75
2023/10/20 03:50:58;;;;;;;18.30;6.00;;;18.80;1.00;;;;;;6186017;23;20091;-79
2023/10/20 03:53:32;;;;;;;17.48;6.28;;;19.10;1.00;;;;;;6185368;23;20028;-75
2023/10/20 03:56:01;;;;;;;22.35;5.97;;;19.10;1.00;;;;;;6220603;23;20028;-76
2023/10/20 03:58:30;;;;;;;17.23;6.63;;;19.30;1.00;;;;;;6184673;23;20040;-79
2023/10/20 04:01:01;;;;;;;21.77;6.25;;;19.40;1.00;;;;;;6223792;23;20039;-78
2023/10/20 04:03:30;;;;;;;18.15;5.90;;;19.30;1.00;;;;;;6186361;23;20384;-76
2023/10/20 04:05:57;;;;;;;18.27;5.72;;;19.20;1.00;;;;;;6172652;23;20480;-77
2023/10/20 04:08:25;;;;;;;17.40;5.25;;;19.00;1.00;;;;;;6203290;23;20099;-77
2023/10/20 04:10:57;;;;;;;15.55;6.03;;;19.10;99.90;;;;;;6241727;23;20073;-78
2023/10/20 04:13:25;;;;;;;17.00;4.53;;;19.20;99.90;;;;;;6189151;23;20107;-75
2023/10/20 04:15:54;;;;;;;23.05;5.32;;;19.60;99.90;;;;;;6186553;23;20445;-76
2023/10/20 04:18:22;;;;;;;12.05;5.20;;;19.90;99.90;;;;;;6185613;23;20024;-75
2023/10/20 04:20:50;;;;;;;19.83;4.95;;;20.20;1.00;;;;;;6186394;23;20087;-75
2023/10/20 04:23:17;;;;;;;17.95;5.72;;;20.50;99.90;;;;;;6185829;23;20036;-77
2023/10/20 04:25:52;;;;;;;17.17;5.25;;;20.70;99.90;;;;;;6185328;23;20021;-79
2023/10/20 04:28:28;;;;;;;19.87;5.33;;;20.60;1.00;;;;;;6224311;23;20012;-78
2023/10/20 04:42:43;;;;;;;21.50;5.03;;;21.20;99.90;;;;;;6224722;23;20024;-77
2023/10/20 04:50:53;;;;;;;19.25;5.03;;;21.10;99.90;;;;;;6195515;23;20076;-78
2023/10/20 04:58:54;;;;;;;18.35;5.72;;;21.30;99.90;;;;;;6216023;23;20152;-78
2023/10/20 05:01:26;;;;;;;20.67;6.05;;;21.20;99.90;;;;;;6226165;23;20023;-79
2023/10/20 05:03:57;;;;;;;17.88;5.00;;;21.20;99.90;;;;;;6217285;23;20066;-76
2023/10/20 05:06:29;;;;;;;22.05;5.28;;;21.30;99.90;;;;;;6190486;23;20023;-78
2023/10/20 05:08:56;;;;;;;18.98;4.63;;;21.30;99.90;;;;;;6182380;23;20048;-75
2023/10/20 05:11:24;;;;;;;20.15;4.80;;;21.50;99.90;;;;;;6175841;23;20040;-76
2023/10/20 05:13:52;;;;;;;22.85;5.95;;;21.50;99.90;;;;;;6181066;23;20016;-76
2023/10/20 05:16:21;;;;;;;15.98;5.10;;;21.60;99.90;;;;;;6184062;23;20040;-75
2023/10/20 05:18:49;;;;;;;17.10;4.60;;;21.70;99.90;;;;;;6193042;23;20017;-78
2023/10/20 05:21:18;;;;;;;17.52;5.18;;;21.70;99.90;;;;;;6190689;23;20083;-77
2023/10/20 05:23:46;;;;;;;17.40;4.80;;;21.70;99.90;;;;;;6186634;23;20029;-75
2023/10/20 05:26:14;;;;;;;14.32;4.65;;;21.80;99.90;;;;;;6185880;23;20035;-76
2023/10/20 05:28:42;;;;;;;15.65;5.10;;;21.80;99.90;;;;;;6185985;23;20023;-78
2023/10/20 05:31:09;;;;;;;21.40;5.95;;;22.00;99.90;;;;;;6194139;23;20035;-75
2023/10/20 05:33:37;;;;;;;14.23;5.03;;;22.20;99.90;;;;;;6199188;23;20345;-75
2023/10/20 05:36:05;;;;;;;22.23;5.05;;;22.30;99.90;;;;;;6191537;23;20445;-75
2023/10/20 05:38:34;;;;;;;16.75;5.38;;;22.30;99.90;;;;;;6200125;23;20095;-78
2023/10/20 05:41:01;;;;;;;17.80;5.07;;;22.40;99.90;;;;;;6213490;23;20032;-76
2023/10/20 05:43:30;;;;;;;22.88;5.25;;;22.70;99.90;;;;;;6189794;23;20044;-79
2023/10/20 05:45:57;;;;;;;22.65;5.53;;;22.60;99.90;;;;;;6224418;23;20013;-75
2023/10/20 05:48:25;;;;;;;13.57;5.38;;;22.70;99.90;;;;;;6187999;23;20032;-75
2023/10/20 05:50:57;;;;;;;21.52;6.22;;;22.70;99.90;;;;;;6189079;23;20357;-76
2023/10/20 05:53:25;;;;;;;20.33;5.95;;;22.70;99.90;;;;;;6187232;23;20096;-75
2023/10/20 05:55:54;;;;;;;22.30;6.15;;;22.70;99.90;;;;;;6188143;23;20075;-75
2023/10/20 05:58:22;;;;;;;17.70;6.03;;;22.80;99.90;;;;;;6187825;23;20374;-75
2023/10/20 06:00:49;;;;;;;23.90;5.53;;;22.70;99.90;;;;;;6187479;23;20025;-75
2023/10/20 06:03:18;;;;;;;28.10;6.82;;;22.80;99.90;;;;;;6187043;23;20017;-76
2023/10/20 06:06:01;;;;;;;18.67;5.97;;;22.90;99.90;;;;;;6186013;23;20416;-78
2023/10/20 06:08:29;;;;;;;19.08;5.05;;;22.90;99.90;;;;;;6217995;23;20334;-74
2023/10/20 06:11:03;;;;;;;20.05;5.10;;;23.00;99.90;;;;;;6186004;23;20028;-76
2023/10/20 06:13:32;;;;;;;18.80;6.70;;;23.10;99.90;;;;;;6200196;23;20013;-75
2023/10/20 06:16:08;;;;;;;20.90;5.70;;;23.10;99.90;;;;;;6214584;22;20044;-83
2023/10/20 06:18:36;;;;;;;18.90;5.47;;;23.20;99.90;;;;;;6211077;23;20023;-82
2023/10/20 06:21:04;;;;;;;16.08;5.53;;;23.10;99.90;;;;;;6195133;23;20021;-84
2023/10/20 06:23:31;;;;;;;15.45;4.75;;;23.10;99.90;;;;;;6229314;23;20047;-83
2023/10/20 06:25:59;;;;;;;20.42;6.38;;;23.10;99.90;;;;;;6249409;23;20048;-84
2023/10/20 06:28:28;;;;;;;17.58;6.22;;;23.10;99.90;;;;;;6251635;23;20024;-82
2023/10/20 06:31:00;;;;;;;23.73;5.70;;;23.20;99.90;;;;;;6241930;23;20341;-82
2023/10/20 06:33:33;;;;;;;17.65;5.13;;;23.20;99.90;;;;;;6243090;22;20027;-83
2023/10/20 06:36:08;;;;;;;23.75;6.63;;;23.30;99.90;;;;;;6241598;23;20024;-84
2023/10/20 06:38:42;;;;;;;;;;;23.30;99.90;;;;;;6248874;23;20031;-84
2023/10/20 06:41:09;;;;;;;26.50;7.80;;;23.30;99.90;;;;;;6251775;23;19919;-84
2023/10/20 06:43:38;;;;;;;15.98;6.20;;;23.40;99.90;;;;;;6252589;22;20012;-83
2023/10/20 06:46:05;;;;;;;16.90;6.45;;;23.50;99.90;;;;;;6241087;23;20043;-84
2023/10/20 06:48:33;;;;;;;21.92;7.93;;;23.60;99.90;;;;;;6242613;23;20098;-82
2023/10/20 06:51:00;;;;;;;21.48;6.05;;;23.70;99.90;;;;;;6244692;23;20116;-83
2023/10/20 06:53:28;;;;;;;17.20;5.43;;;23.80;99.90;;;;;;6249213;22;20032;-83
2023/10/20 06:55:56;;;;;;;22.42;6.20;;;24.00;99.90;;;;;;6242497;23;20020;-84
2023/10/20 06:58:23;;;;;;;21.25;6.05;;;24.10;99.90;;;;;;6242660;23;20031;-83
2023/10/20 07:00:53;;;;;;;21.55;7.72;;;24.10;99.90;;;;;;6245046;23;20028;-82
2023/10/20 07:03:21;;;;;;;19.17;6.55;;;24.10;99.90;;;;;;6248380;22;20028;-84
2023/10/20 07:05:49;;;;;;;19.02;6.38;;;24.10;99.90;;;;;;6250652;23;20032;-84
2023/10/20 07:08:17;;;;;;;21.10;6.35;;;24.10;99.90;;;;;;6253001;23;20055;-83
2023/10/20 07:10:45;;;;;;;22.63;8.80;;;24.20;99.90;;;;;;6253541;23;20433;-83
2023/10/20 07:13:12;;;;;;;21.10;5.70;;;24.20;99.90;;;;;;6242414;23;20544;-83
2023/10/20 07:15:42;;;;;;;19.63;5.63;;;24.40;99.90;;;;;;6242060;23;20441;-84
2023/10/20 07:18:12;;;;;;;15.10;5.63;;;24.50;99.90;;;;;;6247171;23;20095;-83
2023/10/20 07:20:39;;;;;;;24.73;6.07;;;24.40;99.90;;;;;;6250127;23;20046;-84
2023/10/20 07:23:07;;;;;;;26.13;6.13;;;24.40;99.90;;;;;;6250905;22;20027;-83
2023/10/20 07:25:35;;;;;;;25.88;7.80;;;24.50;99.90;;;;;;6253576;23;20012;-83
2023/10/20 07:28:03;;;;;;;19.92;5.93;;;24.60;99.90;;;;;;6221176;23;20084;-83
2023/10/20 07:30:31;;;;;;;16.73;5.63;;;24.60;99.90;;;;;;6248049;23;20016;-82
2023/10/20 07:32:58;;;;;;;17.10;5.43;;;24.60;99.90;;;;;;6250619;22;20020;-82
2023/10/20 07:35:27;;;;;;;20.85;6.32;;;24.50;99.90;;;;;;6251770;23;20028;-84
2023/10/20 07:37:56;;;;;;;19.98;8.00;;;24.50;99.90;;;;;;6263398;23;20016;-84
2023/10/20 07:40:26;;;;;;;18.35;8.48;;;24.50;99.90;;;;;;6260777;23;20070;-83
2023/10/20 07:42:54;;;;;;;18.45;6.40;;;24.60;99.90;;;;;;6244923;22;20016;-84
2023/10/20 07:45:21;;;;;;;16.67;5.75;;;24.60;99.90;;;;;;6246265;23;20028;-83
2023/10/20 07:47:49;;;;;;;19.52;6.45;;;24.70;99.90;;;;;;6248353;23;20025;-84
2023/10/20 07:50:17;;;;;;;18.83;5.15;;;24.80;99.90;;;;;;6217799;23;20030;-84
2023/10/20 07:52:46;;;;;;;21.73;6.90;;;24.80;99.90;;;;;;6253732;22;20016;-84
2023/10/20 07:55:14;;;;;;;21.25;6.03;;;24.90;99.90;;;;;;6218560;23;20024;-84
2023/10/20 07:57:41;;;;;;;16.52;6.47;;;25.00;99.90;;;;;;6217141;23;20017;-85
2023/10/20 08:00:13;;;;;;;16.35;6.03;;;25.10;99.90;;;;;;6246148;23;20032;-84
2023/10/20 08:02:41;;;;;;;19.27;5.85;;;25.10;99.90;;;;;;6217736;23;20445;-83
2023/10/20 08:05:10;;;;;;;19.58;5.65;;;25.40;99.90;;;;;;6252247;23;20475;-84
2023/10/20 08:07:40;;;;;;;23.50;6.40;;;25.50;99.90;;;;;;6219093;23;20023;-84
2023/10/20 08:10:09;;;;;;;25.52;7.85;;;25.60;99.90;;;;;;6217857;23;20028;-84
2023/10/20 08:12:37;;;;;;;20.42;5.50;;;25.70;99.90;;;;;;6245008;22;20312;-84
2023/10/20 08:15:05;;;;;;;20.35;7.82;;;25.80;99.90;;;;;;6247008;23;20030;-83
2023/10/20 08:17:32;;;;;;;21.92;7.05;;;25.80;99.90;;;;;;6248952;23;20527;-84
2023/10/20 08:20:00;;;;;;;19.23;6.13;;;25.80;99.90;;;;;;6251114;23;20091;-83
2023/10/20 08:22:27;;;;;;;21.67;6.40;;;25.90;99.90;;;;;;6258137;22;20464;-83
2023/10/20 08:24:55;;;;;;;20.83;8.30;;;26.00;99.90;;;;;;6255023;23;20095;-84
2023/10/20 08:27:24;;;;;;;19.63;5.80;;;26.20;99.90;;;;;;6255112;23;20047;-82
2023/10/20 08:29:55;;;;;;;25.15;6.28;;;26.50;99.90;;;;;;6252611;23;20032;-83
2023/10/20 08:32:22;;;;;;;21.52;8.30;;;26.60;99.90;;;;;;6239265;22;20024;-84
2023/10/20 08:34:50;;;;;;;18.58;6.38;;;26.90;99.90;;;;;;6253744;23;20094;-85
2023/10/20 08:37:17;;;;;;;21.45;7.90;;;27.00;99.90;;;;;;6243731;23;20018;-83
2023/10/20 08:39:45;;;;;;;22.10;8.48;;;26.90;99.90;;;;;;6243659;23;20466;-84
2023/10/20 08:42:17;;;;;;;21.80;7.78;;;27.00;99.90;;;;;;6217089;22;20365;-84
2023/10/20 08:44:46;;;;;;;17.90;6.60;;;27.00;99.90;;;;;;6248677;23;20020;-84
2023/10/20 08:47:15;;;;;;;28.10;8.70;;;27.10;99.90;;;;;;6242146;23;20055;-85
2023/10/20 08:49:44;;;;;;;23.40;6.68;;;27.20;99.90;;;;;;6251905;23;20027;-84
2023/10/20 08:52:13;;;;;;;25.15;6.50;;;27.40;99.90;;;;;;6218626;22;20075;-84
2023/10/20 08:54:41;;;;;;;21.95;6.55;;;27.60;99.90;;;;;;6244254;23;20544;-84
2023/10/20 08:57:08;;;;;;;16.35;6.07;;;27.70;99.90;;;;;;6246260;23;20025;-84
2023/10/20 08:59:36;;;;;;;23.20;5.25;;;27.80;99.90;;;;;;6248551;23;20544;-83
2023/10/20 09:02:07;;;;;;;21.35;6.55;;;27.90;99.90;;;;;;6250990;22;20027;-84
2023/10/20 09:04:35;;;;;;;19.23;5.95;;;28.00;99.90;;;;;;6253658;23;20074;-85
2023/10/20 09:07:13;;;;;;;22.77;6.45;;;27.90;99.90;;;;;;6242596;23;20016;-84
2023/10/20 09:09:41;;;;;;;21.35;7.97;;;27.90;99.90;;;;;;6244510;23;20035;-84
2023/10/20 09:12:10;;;;;;;17.25;6.13;;;27.90;99.90;;;;;;6247715;22;20023;-84
2023/10/20 09:14:39;;;;;;;20.73;5.65;;;27.80;99.90;;;;;;6250434;23;20078;-84
2023/10/20 09:17:09;;;;;;;17.17;5.93;;;27.90;99.90;;;;;;6252338;23;20039;-84
2023/10/20 09:19:37;;;;;;;19.88;5.88;;;27.90;99.90;;;;;;6257356;23;20428;-84
2023/10/20 09:22:05;;;;;;;26.95;6.40;;;27.80;99.90;;;;;;6222627;22;20050;-83
2023/10/20 09:24:34;;;;;;;20.63;6.00;;;27.70;99.90;;;;;;6239845;23;20007;-84
2023/10/20 09:27:02;;;;;;;18.23;7.03;;;27.70;99.90;;;;;;6272187;22;20034;-84
2023/10/20 09:29:32;;;;;;;27.48;6.82;;;27.70;99.90;;;;;;6261761;23;20141;-83
2023/10/20 09:32:01;;;;;;;48.97;9.88;;;27.70;99.90;;;;;;6258536;22;20028;-85
2023/10/20 09:34:30;;;;;;;22.65;5.93;;;27.70;99.90;;;;;;6243805;23;20018;-84
2023/10/20 09:37:00;;;;;;;23.05;5.55;;;27.70;99.90;;;;;;6258144;23;20380;-83
2023/10/20 09:39:38;;;;;;;23.65;5.72;;;27.60;99.90;;;;;;6247130;23;20023;-84
2023/10/20 09:42:07;;;;;;;22.02;6.10;;;27.60;99.90;;;;;;6246859;22;20024;-81
2023/10/20 09:44:40;;;;;;;20.13;6.80;;;27.70;99.90;;;;;;6242102;23;20496;-84
2023/10/20 09:47:17;;;;;;;29.02;5.35;;;27.60;99.90;;;;;;6251742;23;20032;-84
2023/10/20 09:49:51;;;;;;;23.85;5.97;;;27.50;99.90;;;;;;6219546;23;20020;-84
2023/10/20 09:52:19;;;;;;;27.40;6.55;;;27.40;99.90;;;;;;6253822;22;20019;-84
2023/10/20 09:54:50;;;;;;;26.23;6.57;;;27.40;99.90;;;;;;6244028;23;20020;-88
2023/10/20 09:57:18;;;;;;;21.30;6.22;;;27.40;99.90;;;;;;6243090;23;20128;-84
2023/10/20 09:59:52;;;;;;;22.83;6.50;;;27.40;99.90;;;;;;6234910;23;20058;-83
2023/10/20 10:02:28;;;;;;;24.42;6.40;;;27.30;99.90;;;;;;6198585;23;20024;-85
2023/10/20 10:04:57;;;;;;;;;;;27.30;99.90;;;;;;6251826;23;20016;-81
2023/10/20 10:07:29;;;;;;;27.85;6.50;;;27.30;99.90;;;;;;6255391;23;19966;-83
2023/10/20 10:09:57;;;;;;;31.95;6.45;;;27.30;99.90;;;;;;6243865;23;20020;-83
2023/10/20 10:12:27;;;;;;;31.50;6.68;;;27.20;99.90;;;;;;6246470;22;20024;-83
2023/10/20 10:14:59;;;;;;;27.70;5.90;;;27.10;99.90;;;;;;6248456;23;20069;-81
2023/10/20 10:17:27;;;;;;;22.40;6.38;;;27.20;99.90;;;;;;6249876;23;20640;-83
2023/10/20 10:19:56;;;;;;;28.08;6.03;;;27.20;99.90;;;;;;6221899;23;20039;-83
2023/10/20 10:22:31;;;;;;;24.00;6.35;;;27.20;99.90;;;;;;6274744;22;20015;-82
2023/10/20 10:25:01;;;;;;;;;;;27.20;99.90;;;;;;6229597;23;20048;-82
2023/10/20 10:27:32;;;;;;;31.90;7.20;;;27.30;99.90;;;;;;6248961;23;19920;-80
2023/10/20 10:30:31;;;;;;;29.00;9.80;;;27.30;99.90;;;;;;6260597;23;20038;-85
2023/10/20 10:33:00;;;;;;;41.30;17.17;;;27.30;99.90;;;;;;6238597;23;20023;-85
2023/10/20 10:35:30;;;;;;;20.20;6.32;;;27.30;99.90;;;;;;6240895;23;20016;-88
2023/10/20 10:38:09;;;;;;;24.95;6.82;;;27.20;99.90;;;;;;6228332;23;20031;-82
2023/10/20 10:40:46;;;;;;;32.67;15.32;;;27.30;99.90;;;;;;6226062;23;20017;-90
2023/10/20 10:43:16;;;;;;;30.13;10.18;;;27.30;99.90;;;;;;6241216;23;20027;-81
2023/10/20 10:45:44;;;;;;;48.35;25.60;;;27.30;99.90;;;;;;6268306;23;20020;-82
2023/10/20 10:48:13;;;;;;;31.67;7.55;;;27.30;99.90;;;;;;6269424;23;20229;-81
2023/10/20 10:50:42;;;;;;;26.88;8.20;;;27.40;99.90;;;;;;6232487;23;20024;-83
2023/10/20 10:53:12;;;;;;;27.70;6.35;;;27.10;99.90;;;;;;6229068;23;20024;-84
2023/10/20 10:55:40;;;;;;;29.35;8.13;;;27.20;99.90;;;;;;6260949;23;20020;-81
2023/10/20 10:58:10;;;;;;;26.77;7.03;;;27.20;99.90;;;;;;6255681;23;20419;-82
2023/10/20 11:00:39;;;;;;;31.92;6.78;;;27.10;99.90;;;;;;6261669;23;20055;-82
2023/10/20 11:03:07;;;;;;;25.83;6.55;;;27.20;99.90;;;;;;6264364;22;20464;-81
2023/10/20 11:05:35;;;;;;;25.75;6.53;;;27.10;99.90;;;;;;6230478;23;20027;-81
2023/10/20 11:08:04;;;;;;;30.10;8.63;;;27.10;99.90;;;;;;6265871;23;20028;-81
2023/10/20 11:10:34;;;;;;;40.67;19.70;;;27.10;99.90;;;;;;6263029;23;20099;-83
2023/10/20 11:13:06;;;;;;;28.13;6.38;;;27.10;99.90;;;;;;6256580;22;20055;-81
2023/10/20 11:15:35;;;;;;;32.38;7.30;;;27.10;99.90;;;;;;6246011;23;20020;-83
2023/10/20 11:18:04;;;;;;;29.15;7.15;;;27.20;99.90;;;;;;6248346;23;20099;-81
2023/10/20 11:20:36;;;;;;;29.80;7.45;;;27.10;99.90;;;;;;6249866;23;20475;-81
2023/10/20 11:23:07;;;;;;;30.08;8.75;;;27.20;99.90;;;;;;6219383;23;20028;-81
2023/10/20 11:25:36;;;;;;;34.25;7.70;;;27.10;99.90;;;;;;6217499;23;20016;-80
2023/10/20 11:28:04;;;;;;;36.17;6.65;;;27.20;99.90;;;;;;6256136;23;20012;-82
2023/10/20 11:30:34;;;;;;;28.00;7.18;;;27.10;99.90;;;;;;6246265;22;20032;-82
2023/10/20 11:33:03;;;;;;;31.95;7.53;;;27.10;99.90;;;;;;6247922;22;20047;-82
2023/10/20 11:35:30;;;;;;;21.13;5.93;;;27.10;99.90;;;;;;6249314;23;20127;-82
2023/10/20 11:38:00;;;;;;;30.55;8.55;;;27.20;99.90;;;;;;6216788;23;20051;-82
2023/10/20 11:40:41;;;;;;;24.20;8.32;;;27.20;99.90;;;;;;6254329;23;20460;-82
2023/10/20 11:43:08;;;;;;;26.48;6.20;;;27.20;99.90;;;;;;6244677;22;20305;-83
2023/10/20 11:45:36;;;;;;;27.13;6.38;;;27.20;99.90;;;;;;6246560;23;20070;-82
2023/10/20 11:48:03;;;;;;;25.75;6.63;;;27.30;99.90;;;;;;6251773;23;20020;-83
2023/10/20 11:50:30;;;;;;;30.00;6.68;;;27.20;99.90;;;;;;6255026;23;20028;-83
2023/10/20 11:52:58;;;;;;;23.30;7.97;;;27.30;99.90;;;;;;6218832;23;20062;-83
2023/10/20 11:55:25;;;;;;;25.48;7.70;;;27.30;99.90;;;;;;6244176;23;20020;-81
2023/10/20 11:57:55;;;;;;;27.85;6.50;;;27.30;99.90;;;;;;6245293;23;20030;-81
2023/10/20 12:00:22;;;;;;;28.05;6.60;;;27.30;99.90;;;;;;6247583;23;20090;-81
2023/10/20 12:02:51;;;;;;;24.70;7.03;;;27.30;99.90;;;;;;6250720;22;20020;-84
2023/10/20 12:05:18;;;;;;;35.08;7.85;;;27.30;99.90;;;;;;6250904;23;20028;-79
2023/10/20 12:07:45;;;;;;;25.40;7.35;;;27.20;99.90;;;;;;6252027;23;20008;-81
2023/10/20 12:10:13;;;;;;;22.00;7.47;;;27.20;99.90;;;;;;6216565;23;20031;-81
2023/10/20 12:12:41;;;;;;;25.38;6.45;;;27.30;99.90;;;;;;6245745;22;20099;-80
2023/10/20 12:15:11;;;;;;;26.33;6.00;;;27.30;99.90;;;;;;6246686;23;20085;-81
2023/10/20 12:17:40;;;;;;;21.15;7.03;;;27.20;99.90;;;;;;6249149;23;20024;-80
2023/10/20 12:20:10;;;;;;;27.95;8.68;;;27.20;99.90;;;;;;6250028;23;20467;-80
2023/10/20 12:22:37;;;;;;;23.08;7.50;;;27.30;99.90;;;;;;6253194;22;20407;-81
2023/10/20 12:25:06;;;;;;;23.88;6.25;;;27.30;99.90;;;;;;6256183;23;20016;-83
2023/10/20 12:27:34;;;;;;;20.85;6.28;;;27.20;99.90;;;;;;6247036;23;20020;-82
2023/10/20 12:30:01;;;;;;;21.85;5.93;;;27.20;99.90;;;;;;6247468;23;20032;-82
2023/10/20 12:32:30;;;;;;;18.42;5.80;;;27.30;99.90;;;;;;6249369;22;20035;-80
2023/10/20 12:34:57;;;;;;;21.73;6.13;;;27.20;99.90;;;;;;6251219;23;20027;-82
2023/10/20 12:37:25;;;;;;;21.27;6.25;;;27.20;99.90;;;;;;6254337;23;20016;-80
2023/10/20 12:39:52;;;;;;;24.25;5.88;;;27.20;99.90;;;;;;6242123;23;20026;-79
2023/10/20 12:42:20;;;;;;;21.60;5.85;;;27.30;99.90;;;;;;6241876;23;20024;-81
2023/10/20 12:44:47;;;;;;;21.10;7.00;;;27.30;99.90;;;;;;6248190;23;20020;-81
2023/10/20 12:47:15;;;;;;;23.10;5.80;;;27.20;99.90;;;;;;6261458;23;20039;-81
2023/10/20 12:49:44;;;;;;;24.48;5.80;;;27.20;99.90;;;;;;6270437;23;20026;-82
2023/10/20 12:52:12;;;;;;;22.88;6.97;;;27.10;99.90;;;;;;6230336;23;20024;-82
2023/10/20 12:54:41;;;;;;;22.52;6.18;;;27.10;99.90;;;;;;6249764;23;20020;-81
2023/10/20 12:57:09;;;;;;;23.17;6.50;;;27.20;99.90;;;;;;6256774;23;20538;-81
2023/10/20 12:59:36;;;;;;;21.27;5.90;;;27.20;99.90;;;;;;6221252;23;20615;-81
2023/10/20 13:02:04;;;;;;;23.20;5.03;;;27.20;99.70;;;;;;6250072;22;20091;-84
2023/10/20 13:04:31;;;;;;;22.40;5.80;;;27.10;99.50;;;;;;6252083;23;20039;-82
2023/10/20 13:07:02;;;;;;;24.05;5.90;;;27.10;99.90;;;;;;6252868;23;20016;-82